Time;durP1;ratioP1;P1;durP2;ratioP2;P2;SDS_P1;SDS_P2;PMS_P1;PMS_P2;Temp;Humidity;BMP_temperature;BMP_pressure;BME280_temperature;BME280_humidity;BME280_pressure;Samples;Min_cycle;Max_cycle;Signal;HPM_P1;HPM_P2
2020/12/02 00:01:29;;;;;;;24.53;14.67;;;;;;;-0.64;100.00;101683.88;4988092;28;20047;-93
2020/12/02 00:04:01;;;;;;;27.87;16.63;;;;;;;-0.72;100.00;101680.09;4989609;28;20058;-93
2020/12/02 00:06:29;;;;;;;24.60;14.73;;;;;;;-0.80;100.00;101671.09;4990037;28;20073;-93
2020/12/02 00:08:57;;;;;;;25.53;15.23;;;;;;;-0.90;100.00;101677.63;5004384;28;20064;-92
2020/12/02 00:11:26;;;;;;;26.90;15.93;;;;;;;-0.94;100.00;101678.28;4992212;28;20427;-93
2020/12/02 00:13:56;;;;;;;23.23;14.40;;;;;;;-1.01;100.00;101681.47;4978095;28;20050;-92
2020/12/02 00:16:25;;;;;;;25.20;15.13;;;;;;;-1.11;100.00;101681.88;4982638;28;20112;-92
2020/12/02 00:18:53;;;;;;;25.43;14.77;;;;;;;-1.22;100.00;101681.44;4995369;28;20041;-92
2020/12/02 00:21:24;;;;;;;21.63;13.40;;;;;;;-1.32;100.00;101675.78;4986842;28;20060;-92
2020/12/02 00:23:54;;;;;;;25.17;14.27;;;;;;;-1.39;100.00;101690.16;4986011;28;20069;-91
2020/12/02 00:26:24;;;;;;;24.27;15.00;;;;;;;-1.45;100.00;101685.59;5012273;28;20038;-92
2020/12/02 00:28:52;;;;;;;23.80;13.93;;;;;;;-1.48;100.00;101687.16;4992917;28;20109;-93
2020/12/02 00:31:20;;;;;;;26.77;15.47;;;;;;;-1.54;100.00;101682.59;4990222;28;20045;-92
2020/12/02 00:33:47;;;;;;;26.67;16.20;;;;;;;-1.61;100.00;101687.44;4984777;28;20045;-93
2020/12/02 00:36:15;;;;;;;27.53;15.33;;;;;;;-1.70;100.00;101680.13;5003236;28;20053;-92
2020/12/02 00:38:41;;;;;;;30.17;16.53;;;;;;;-1.76;100.00;101687.66;5004347;28;20053;-93
2020/12/02 00:41:10;;;;;;;31.03;16.97;;;;;;;-1.79;100.00;101693.53;5031999;28;20139;-92
2020/12/02 00:43:36;;;;;;;29.83;15.60;;;;;;;-1.83;100.00;101694.25;5005311;28;20073;-92
2020/12/02 00:46:04;;;;;;;26.67;15.53;;;;;;;-1.91;100.00;101689.53;5003346;28;20072;-92
2020/12/02 00:48:32;;;;;;;28.83;16.03;;;;;;;-1.95;100.00;101697.94;4991938;28;20103;-92
2020/12/02 00:50:59;;;;;;;26.93;15.47;;;;;;;-1.99;100.00;101692.63;5012134;28;20052;-92
2020/12/02 00:53:29;;;;;;;28.57;15.77;;;;;;;-2.07;100.00;101682.75;5002489;28;20099;-92
2020/12/02 00:55:56;;;;;;;34.87;17.20;;;;;;;-2.13;100.00;101690.22;4991965;28;20053;-92
2020/12/02 00:58:38;;;;;;;29.83;17.23;;;;;;;-2.16;100.00;101701.31;4993216;28;20101;-92
2020/12/02 01:01:09;;;;;;;27.60;16.27;;;;;;;-2.22;100.00;101700.13;5008618;28;20046;-92
2020/12/02 01:03:36;;;;;;;29.67;15.83;;;;;;;-2.26;100.00;101701.69;4995761;28;20065;-93
2020/12/02 01:06:06;;;;;;;29.00;15.93;;;;;;;-2.24;100.00;101702.66;4991664;28;20061;-92
2020/12/02 01:08:38;;;;;;;27.53;15.40;;;;;;;-2.20;100.00;101701.97;5009765;28;20060;-92
2020/12/02 01:11:17;;;;;;;29.00;16.33;;;;;;;-2.18;100.00;101707.25;5008050;28;20057;-92
2020/12/02 01:13:45;;;;;;;28.07;16.20;;;;;;;-2.21;100.00;101710.56;5016492;28;20057;-92
2020/12/02 01:16:15;;;;;;;31.07;16.40;;;;;;;-2.19;100.00;101701.16;5000874;28;20050;-92
2020/12/02 01:18:42;;;;;;;30.40;16.07;;;;;;;-2.16;100.00;101693.56;5000348;28;20045;-93
2020/12/02 01:21:22;;;;;;;29.43;15.40;;;;;;;-2.14;100.00;101696.22;4989458;28;20457;-93
2020/12/02 01:24:17;;;;;;;28.40;14.83;;;;;;;-2.12;100.00;101694.56;5020812;28;20052;-92
2020/12/02 01:26:51;;;;;;;30.30;15.70;;;;;;;-2.12;100.00;101690.28;5019880;28;20101;-92
2020/12/02 01:29:19;;;;;;;28.70;16.23;;;;;;;-2.18;100.00;101690.00;4999050;28;20050;-92
2020/12/02 01:31:51;;;;;;;26.37;15.00;;;;;;;-2.19;100.00;101684.72;4991183;28;20048;-92
2020/12/02 01:34:19;;;;;;;26.07;14.83;;;;;;;-2.22;100.00;101687.19;5008365;28;20450;-93
2020/12/02 01:37:07;;;;;;;29.70;15.27;;;;;;;-2.27;100.00;101685.28;4990713;28;20079;-93
2020/12/02 01:39:37;;;;;;;31.43;15.70;;;;;;;-2.34;100.00;101688.38;5003541;28;20037;-92
2020/12/02 01:42:04;;;;;;;24.53;15.33;;;;;;;-2.41;100.00;101690.59;4988747;28;20087;-93
2020/12/02 01:44:31;;;;;;;31.03;16.73;;;;;;;-2.47;100.00;101677.34;4992190;28;20099;-93
2020/12/02 01:47:14;;;;;;;27.77;15.53;;;;;;;-2.50;100.00;101685.88;5003245;28;20042;-92
2020/12/02 01:49:50;;;;;;;28.70;16.10;;;;;;;-2.56;100.00;101694.22;4982139;28;20037;-92
2020/12/02 01:52:48;;;;;;;28.20;15.73;;;;;;;-2.63;100.00;101699.00;5005135;28;20054;-91
2020/12/02 01:55:20;;;;;;;26.93;14.90;;;;;;;-2.72;100.00;101686.50;5011142;28;20214;-92
2020/12/02 01:57:48;;;;;;;24.53;14.47;;;;;;;-2.73;100.00;101691.63;5003792;28;20073;-92
2020/12/02 02:00:26;;;;;;;28.90;16.30;;;;;;;-2.77;100.00;101684.53;4995760;28;20041;-93
2020/12/02 02:03:15;;;;;;;28.47;15.70;;;;;;;-2.82;100.00;101689.44;5001016;28;20042;-92
2020/12/02 02:05:57;;;;;;;27.13;15.63;;;;;;;-2.89;100.00;101690.84;5008641;28;20048;-92
2020/12/02 02:08:28;;;;;;;30.83;17.10;;;;;;;-2.96;100.00;101693.91;5006666;28;20041;-92
2020/12/02 02:10:57;;;;;;;32.17;17.10;;;;;;;-3.01;100.00;101687.66;5009556;28;20034;-92
2020/12/02 02:13:52;;;;;;;39.13;16.20;;;;;;;-2.99;100.00;101693.78;5009948;28;20052;-92
2020/12/02 02:16:27;;;;;;;31.03;15.73;;;;;;;-3.05;100.00;101687.41;4994408;28;20041;-92
2020/12/02 02:18:57;;;;;;;29.10;15.60;;;;;;;-3.10;100.00;101694.06;4989002;28;20049;-92
2020/12/02 02:21:28;;;;;;;29.53;15.67;;;;;;;-3.15;100.00;101686.94;4983603;28;20076;-91
2020/12/02 02:23:55;;;;;;;30.33;17.13;;;;;;;-3.20;100.00;101683.22;4994619;28;20065;-91
2020/12/02 02:26:39;;;;;;;26.53;14.87;;;;;;;-3.17;100.00;101687.69;5047853;23;20041;-68
2020/12/02 02:29:08;;;;;;;28.83;16.23;;;;;;;-3.22;100.00;101681.38;5026747;28;20096;-68
2020/12/02 02:31:40;;;;;;;34.17;17.37;;;;;;;-3.23;100.00;101692.53;5028020;28;20049;-68
2020/12/02 02:34:09;;;;;;;28.10;15.20;;;;;;;-3.24;100.00;101685.59;5011777;28;20080;-68
2020/12/02 02:36:35;;;;;;;28.90;15.13;;;;;;;-3.27;100.00;101681.16;4993047;28;20242;-68
2020/12/02 02:39:03;;;;;;;29.27;16.00;;;;;;;-3.29;100.00;101682.75;5027989;28;20116;-67
2020/12/02 02:41:30;;;;;;;33.07;17.23;;;;;;;-3.31;100.00;101678.31;4994375;28;20091;-68
2020/12/02 02:43:56;;;;;;;27.60;15.77;;;;;;;-3.32;100.00;101677.44;5026776;28;20107;-68
2020/12/02 02:46:22;;;;;;;25.90;14.30;;;;;;;-3.33;100.00;101674.78;5007081;28;20041;-68
2020/12/02 02:48:48;;;;;;;29.43;15.97;;;;;;;-3.37;100.00;101672.81;5028446;28;20063;-68
2020/12/02 02:51:15;;;;;;;31.20;15.43;;;;;;;-3.42;100.00;101659.69;5028880;28;20451;-68
2020/12/02 02:53:41;;;;;;;32.07;15.67;;;;;;;-3.43;100.00;101668.25;5008485;28;20141;-67
2020/12/02 02:56:11;;;;;;;29.43;16.50;;;;;;;-3.46;100.00;101662.91;5008893;28;20068;-68
2020/12/02 02:58:37;;;;;;;30.83;16.63;;;;;;;-3.48;100.00;101667.13;5028902;28;20037;-68
2020/12/02 03:01:04;;;;;;;30.73;16.60;;;;;;;-3.46;100.00;101656.03;5011047;28;20079;-68
2020/12/02 03:03:30;;;;;;;25.03;14.30;;;;;;;-3.46;100.00;101670.66;5006263;28;20041;-68
2020/12/02 03:05:58;;;;;;;25.17;15.17;;;;;;;-3.49;100.00;101671.38;5005279;28;20122;-68
2020/12/02 03:08:24;;;;;;;33.73;17.57;;;;;;;-3.52;100.00;101671.25;5010896;28;20041;-68
2020/12/02 03:10:52;;;;;;;28.53;16.00;;;;;;;-3.54;100.00;101671.94;5007278;28;20030;-68
2020/12/02 03:13:38;;;;;;;29.60;15.30;;;;;;;-3.58;100.00;101673.50;4986471;28;20061;-68
2020/12/02 03:16:10;;;;;;;30.27;16.17;;;;;;;-3.64;100.00;101669.69;5007399;28;20062;-68
2020/12/02 03:18:37;;;;;;;30.33;16.30;;;;;;;-3.61;100.00;101675.03;5008779;28;20088;-68
2020/12/02 03:21:06;;;;;;;31.13;16.07;;;;;;;-3.61;100.00;101664.72;5028331;28;20684;-68
2020/12/02 03:23:33;;;;;;;32.70;16.13;;;;;;;-3.62;100.00;101668.97;5013924;28;20042;-68
2020/12/02 03:25:59;;;;;;;30.93;15.83;;;;;;;-3.62;100.00;101662.91;5007901;28;20061;-68
2020/12/02 03:28:28;;;;;;;30.80;17.77;;;;;;;-3.66;100.00;101656.72;5028679;28;20064;-68
2020/12/02 03:30:59;;;;;;;29.77;15.63;;;;;;;-3.70;100.00;101660.84;5009873;28;20072;-68
2020/12/02 03:33:26;;;;;;;35.53;17.90;;;;;;;-3.72;100.00;101652.09;5011061;28;20033;-68
2020/12/02 03:35:52;;;;;;;35.80;18.00;;;;;;;-3.73;100.00;101654.59;5028679;28;20037;-68
2020/12/02 03:38:20;;;;;;;28.10;15.50;;;;;;;-3.75;100.00;101651.94;5008136;28;20124;-68
2020/12/02 03:40:46;;;;;;;29.80;16.50;;;;;;;-3.76;100.00;101651.88;5026361;28;20075;-68
2020/12/02 03:43:12;;;;;;;32.10;17.40;;;;;;;-3.78;100.00;101656.06;5007246;28;20258;-68
2020/12/02 03:45:43;;;;;;;29.97;15.73;;;;;;;-3.80;100.00;101661.13;5026932;28;20037;-68
2020/12/02 03:48:10;;;;;;;33.33;16.30;;;;;;;-3.84;100.00;101656.63;5010133;28;20103;-68
2020/12/02 03:50:38;;;;;;;28.67;16.27;;;;;;;-3.86;100.00;101652.19;5028079;28;20030;-68
2020/12/02 03:53:05;;;;;;;27.67;16.30;;;;;;;-3.86;100.00;101649.63;5010649;28;20041;-68
2020/12/02 03:55:31;;;;;;;31.33;16.37;;;;;;;-3.85;100.00;101649.69;5010139;28;20061;-68
2020/12/02 03:57:57;;;;;;;28.70;15.27;;;;;;;-3.86;100.00;101644.44;5007985;28;20139;-68
2020/12/02 04:00:24;;;;;;;31.80;15.70;;;;;;;-3.90;100.00;101645.97;5006367;28;20088;-68
2020/12/02 04:02:50;;;;;;;30.10;15.57;;;;;;;-3.92;100.00;101650.16;5023724;28;20030;-68
2020/12/02 04:05:16;;;;;;;27.73;15.33;;;;;;;-3.94;100.00;101644.03;5028227;28;20049;-68
2020/12/02 04:07:43;;;;;;;31.97;17.43;;;;;;;-3.97;100.00;101643.84;5026791;28;20087;-67
2020/12/02 04:10:09;;;;;;;31.97;16.63;;;;;;;-3.98;100.00;101640.38;5028204;28;20072;-68
2020/12/02 04:12:35;;;;;;;30.10;15.53;;;;;;;-3.98;100.00;101642.97;5009347;28;20138;-68
2020/12/02 04:15:03;;;;;;;28.37;15.37;;;;;;;-3.98;100.00;101645.53;5004077;28;20033;-68
2020/12/02 04:17:29;;;;;;;34.80;17.37;;;;;;;-3.98;100.00;101636.91;4986729;28;20042;-68
2020/12/02 04:19:55;;;;;;;30.43;15.37;;;;;;;-3.98;100.00;101637.81;5027927;28;20038;-68
2020/12/02 04:22:21;;;;;;;29.20;15.47;;;;;;;-3.97;100.00;101636.09;5028663;28;20068;-68
2020/12/02 04:24:47;;;;;;;28.53;15.07;;;;;;;-3.96;100.00;101636.19;5027207;28;20037;-68
2020/12/02 04:27:15;;;;;;;30.83;15.37;;;;;;;-3.94;100.00;101638.00;5025191;28;20041;-68
2020/12/02 04:29:42;;;;;;;32.50;16.30;;;;;;;-3.94;100.00;101638.88;5028043;28;20375;-68
2020/12/02 04:32:10;;;;;;;30.73;16.13;;;;;;;-3.94;100.00;101638.88;5006131;28;20034;-67
2020/12/02 04:34:36;;;;;;;32.10;15.43;;;;;;;-3.94;100.00;101638.88;4991535;28;20049;-68
2020/12/02 04:37:02;;;;;;;26.70;15.03;;;;;;;-3.91;100.00;101638.13;5008076;28;20033;-70
2020/12/02 04:39:28;;;;;;;28.40;15.37;;;;;;;-3.88;100.00;101630.56;5015308;28;20289;-70
2020/12/02 04:41:54;;;;;;;35.40;16.83;;;;;;;-3.88;100.00;101631.44;5010401;28;21154;-69
2020/12/02 04:44:21;;;;;;;30.83;16.43;;;;;;;-3.85;100.00;101625.56;5011041;28;20518;-71
2020/12/02 04:46:47;;;;;;;26.70;15.90;;;;;;;-3.84;100.00;101633.38;5005771;28;20490;-71
2020/12/02 04:49:27;;;;;;;33.80;16.53;;;;;;;-3.83;100.00;101631.69;4993769;28;20042;-69
2020/12/02 04:52:26;;;;;;;28.90;15.63;;;;;;;-3.82;100.00;101626.59;4985137;28;20463;-72
2020/12/02 04:54:52;;;;;;;33.43;16.10;;;;;;;-3.81;100.00;101628.38;4985344;28;20700;-70
2020/12/02 04:57:18;;;;;;;34.03;17.63;;;;;;;-3.80;100.00;101626.69;5009654;28;20045;-72
2020/12/02 04:59:45;;;;;;;33.00;17.30;;;;;;;-3.78;100.00;101627.66;5026102;28;20065;-74
2020/12/02 05:02:29;;;;;;;33.17;17.30;;;;;;;-3.76;100.00;101628.63;5004448;28;20073;-70
2020/12/02 05:04:57;;;;;;;30.48;16.23;;;;;;;-3.79;100.00;101631.91;5007057;28;20404;-72
2020/12/02 05:07:29;;;;;;;34.37;17.30;;;;;;;-3.76;100.00;101631.22;5008138;28;20128;-74
2020/12/02 05:10:17;;;;;;;33.23;16.70;;;;;;;-3.76;100.00;101628.63;5005465;28;20112;-72
2020/12/02 05:12:45;;;;;;;33.47;17.27;;;;;;;-3.74;100.00;101632.19;5009263;28;20048;-71
2020/12/02 05:15:17;;;;;;;30.57;17.57;;;;;;;-3.74;100.00;101635.63;5006669;28;20573;-70
2020/12/02 05:18:05;;;;;;;33.43;16.57;;;;;;;-3.73;100.00;101631.38;5024661;28;20037;-70
2020/12/02 05:20:31;;;;;;;31.07;16.23;;;;;;;-3.72;100.00;101622.81;5028312;28;20407;-74
2020/12/02 05:23:09;;;;;;;33.03;15.87;;;;;;;-3.73;100.00;101618.44;5010795;28;20441;-72
2020/12/02 05:25:35;;;;;;;27.37;15.57;;;;;;;-3.73;100.00;101621.91;5031436;28;20045;-70
2020/12/02 05:28:28;;;;;;;34.17;17.73;;;;;;;-3.76;100.00;101621.78;5031233;28;20049;-69
2020/12/02 05:31:01;;;;;;;31.50;16.03;;;;;;;-3.76;100.00;101626.06;5009986;28;20071;-69
2020/12/02 05:33:30;;;;;;;31.03;16.07;;;;;;;-3.78;100.00;101625.09;5027958;28;20033;-69
2020/12/02 05:36:04;;;;;;;28.93;15.93;;;;;;;-3.78;100.00;101625.09;5009370;28;20080;-73
2020/12/02 05:38:36;;;;;;;30.17;15.87;;;;;;;-3.78;100.00;101627.66;5011680;28;20049;-70
2020/12/02 05:41:05;;;;;;;31.53;15.87;;;;;;;-3.75;100.00;101636.44;5008344;28;20108;-71
2020/12/02 05:43:45;;;;;;;34.23;15.20;;;;;;;-3.74;100.00;101624.44;5005487;28;20038;-70
2020/12/02 05:46:17;;;;;;;30.13;16.27;;;;;;;-3.73;100.00;101624.50;4996366;28;20049;-71
2020/12/02 05:48:44;;;;;;;32.27;16.53;;;;;;;-3.70;100.00;101627.28;5010173;28;20183;-69
2020/12/02 05:51:19;;;;;;;32.10;16.63;;;;;;;-3.67;100.00;101625.66;5028963;28;20128;-72
2020/12/02 05:53:52;;;;;;;35.47;18.50;;;;;;;-3.66;100.00;101617.97;5010393;28;20053;-70
2020/12/02 05:56:19;;;;;;;31.40;17.53;;;;;;;-3.60;100.00;101625.16;5008270;28;20042;-70
2020/12/02 05:58:45;;;;;;;33.57;16.23;;;;;;;-3.57;100.00;101635.63;5023820;28;20053;-69
2020/12/02 06:01:16;;;;;;;29.50;15.10;;;;;;;-3.54;100.00;101634.09;5009776;28;20294;-73
2020/12/02 06:03:46;;;;;;;32.63;16.60;;;;;;;-3.50;100.00;101625.72;5008443;28;20075;-70
2020/12/02 06:06:13;;;;;;;30.93;15.57;;;;;;;-3.48;100.00;101618.03;5010355;28;20474;-73
2020/12/02 06:08:42;;;;;;;35.90;17.73;;;;;;;-3.48;100.00;101624.09;5029038;28;20140;-72
2020/12/02 06:11:15;;;;;;;35.13;16.93;;;;;;;-3.46;100.00;101625.03;4994131;28;20065;-73
2020/12/02 06:13:51;;;;;;;33.47;17.37;;;;;;;-3.44;100.00;101625.16;5029276;28;20073;-71
2020/12/02 06:16:44;;;;;;;34.73;18.13;;;;;;;-3.43;100.00;101630.38;5011881;28;20064;-71
2020/12/02 06:19:22;;;;;;;33.73;16.80;;;;;;;-3.42;100.00;101624.41;5009108;28;20438;-70
2020/12/02 06:21:59;;;;;;;28.67;17.50;;;;;;;-3.40;100.00;101621.91;5010602;28;20037;-70
2020/12/02 06:24:39;;;;;;;29.77;16.33;;;;;;;-3.38;100.00;101628.03;5009501;28;20077;-71
2020/12/02 06:27:14;;;;;;;33.33;16.33;;;;;;;-3.37;100.00;101621.16;5028941;28;20128;-71
2020/12/02 06:29:42;;;;;;;33.10;17.10;;;;;;;-3.38;100.00;101619.38;5028167;28;20033;-70
2020/12/02 06:32:08;;;;;;;32.90;16.57;;;;;;;-3.36;100.00;101610.00;5009991;28;20042;-72
2020/12/02 06:34:34;;;;;;;33.03;15.13;;;;;;;-3.35;100.00;101609.22;5028581;28;20045;-69
2020/12/02 06:37:19;;;;;;;35.50;17.03;;;;;;;-3.34;100.00;101609.28;5028484;28;20099;-70
2020/12/02 06:39:48;;;;;;;31.90;15.70;;;;;;;-3.31;100.00;101603.38;5007579;28;20042;-71
2020/12/02 06:42:22;;;;;;;30.53;15.90;;;;;;;-3.30;100.00;101603.47;5007363;28;20070;-74
2020/12/02 06:45:15;;;;;;;29.60;16.17;;;;;;;-3.29;100.00;101602.66;5012159;28;20096;-72
2020/12/02 06:48:20;;;;;;;32.63;16.80;;;;;;;-3.27;100.00;101600.16;5029347;28;20615;-69
2020/12/02 06:50:46;;;;;;;34.93;17.07;;;;;;;-3.25;100.00;101599.41;5019083;28;20052;-70
2020/12/02 06:53:19;;;;;;;33.43;17.37;;;;;;;-3.22;100.00;101603.84;5029397;28;20041;-69
2020/12/02 06:55:46;;;;;;;33.87;18.07;;;;;;;-3.18;100.00;101609.25;5008765;28;20038;-71
2020/12/02 06:58:17;;;;;;;29.63;17.60;;;;;;;-3.17;100.00;101603.28;4989238;28;20073;-70
2020/12/02 07:00:56;;;;;;;32.73;17.90;;;;;;;-3.13;100.00;101609.47;5028973;28;20037;-70
2020/12/02 07:03:29;;;;;;;31.13;16.60;;;;;;;-3.13;100.00;101605.19;5012212;28;20049;-70
2020/12/02 07:06:09;;;;;;;27.87;15.63;;;;;;;-3.09;100.00;101600.19;5008823;28;20073;-69
2020/12/02 07:08:37;;;;;;;34.67;16.77;;;;;;;-3.07;100.00;101602.03;5012244;28;20049;-69
2020/12/02 07:11:19;;;;;;;30.40;16.80;;;;;;;-3.05;100.00;101602.97;5011488;28;20034;-71
2020/12/02 07:13:48;;;;;;;32.13;17.07;;;;;;;-3.02;100.00;101598.00;5011993;28;20375;-71
2020/12/02 07:16:31;;;;;;;33.63;18.07;;;;;;;-2.98;100.00;101599.00;5029440;28;20557;-72
2020/12/02 07:18:59;;;;;;;30.63;16.23;;;;;;;-2.95;100.00;101599.16;5011835;28;20045;-72
2020/12/02 07:21:36;;;;;;;32.33;17.43;;;;;;;-2.91;100.00;101599.38;5007678;28;20117;-71
2020/12/02 07:24:03;;;;;;;31.53;17.03;;;;;;;-2.87;100.00;101603.00;5004781;28;20045;-70
2020/12/02 07:26:30;;;;;;;31.93;17.27;;;;;;;-2.84;100.00;101596.28;5011255;28;20052;-70
2020/12/02 07:29:02;;;;;;;34.43;16.77;;;;;;;-2.79;100.00;101603.38;5029669;28;20072;-69
2020/12/02 07:31:29;;;;;;;36.10;17.50;;;;;;;-2.76;100.00;101591.50;5007631;28;20108;-69
2020/12/02 07:34:03;;;;;;;34.30;17.07;;;;;;;-2.71;100.00;101595.16;4998581;28;20419;-74
2020/12/02 07:36:33;;;;;;;33.85;17.30;;;;;;;-2.68;100.00;101591.88;5026147;28;20041;-73
2020/12/02 07:39:20;;;;;;;33.13;16.37;;;;;;;-2.62;100.00;101602.47;5008311;28;20111;-69
2020/12/02 07:42:31;;;;;;;30.00;16.60;;;;;;;-2.56;100.00;101600.19;5022867;28;20446;-69
2020/12/02 07:45:15;;;;;;;32.07;17.70;;;;;;;-2.50;100.00;101597.91;5027187;28;20191;-70
2020/12/02 07:47:47;;;;;;;32.72;18.90;;;;;;;-2.43;100.00;101601.66;4995957;28;20042;-70
2020/12/02 07:50:43;;;;;;;32.83;17.57;;;;;;;-2.37;100.00;101595.06;5002163;28;20045;-70
2020/12/02 07:53:25;;;;;;;36.17;17.90;;;;;;;-2.32;100.00;101592.69;5028793;28;20037;-69
2020/12/02 07:55:52;;;;;;;36.77;17.80;;;;;;;-2.25;100.00;101599.06;5028644;28;20517;-70
2020/12/02 07:58:51;;;;;;;31.50;17.53;;;;;;;-2.18;100.00;101585.56;5028793;28;20446;-73
2020/12/02 08:01:35;;;;;;;31.67;18.03;;;;;;;-2.12;100.00;101589.31;4989237;28;20509;-69
2020/12/02 08:04:34;;;;;;;37.97;19.27;;;;;;;-2.04;100.00;101587.94;5010925;28;20580;-70
2020/12/02 08:07:21;;;;;;;33.73;18.20;;;;;;;-1.97;100.00;101586.53;5011911;28;20146;-71
2020/12/02 08:09:50;;;;;;;32.47;18.87;;;;;;;-1.88;100.00;101588.66;5010422;28;20075;-71
2020/12/02 08:12:19;;;;;;;38.30;19.83;;;;;;;-1.82;100.00;101587.22;5007532;28;20066;-70
2020/12/02 08:14:48;;;;;;;42.17;20.80;;;;;;;-1.76;100.00;101577.13;5014920;28;20571;-71
2020/12/02 08:17:21;;;;;;;33.13;18.63;;;;;;;-1.70;100.00;101569.63;5028521;28;20049;-74
2020/12/02 08:19:51;;;;;;;37.67;19.20;;;;;;;-1.63;100.00;101572.47;5007387;28;20503;-70
2020/12/02 08:22:24;;;;;;;38.43;21.03;;;;;;;-1.58;100.00;101571.88;5010919;28;20044;-72
2020/12/02 08:25:00;;;;;;;37.60;19.70;;;;;;;-1.50;100.00;101575.69;5008884;28;20431;-70
2020/12/02 08:27:28;;;;;;;38.23;19.30;;;;;;;-1.39;100.00;101567.47;5007433;28;20046;-69
2020/12/02 08:29:55;;;;;;;38.67;19.53;;;;;;;-1.33;100.00;101568.63;5006227;28;20050;-74
2020/12/02 08:32:30;;;;;;;42.87;20.57;;;;;;;-1.24;100.00;101570.72;5001612;28;20041;-73
2020/12/02 08:34:56;;;;;;;39.43;21.30;;;;;;;-1.17;100.00;101568.44;5028221;28;20046;-69
2020/12/02 08:37:33;;;;;;;37.47;20.37;;;;;;;-1.08;100.00;101561.84;5007117;28;20038;-70
2020/12/02 08:40:19;;;;;;;45.60;24.57;;;;;;;-1.00;100.00;101568.25;5004286;28;20036;-74
2020/12/02 08:42:45;;;;;;;40.40;21.67;;;;;;;-0.94;100.00;101566.75;5006083;28;20069;-70
2020/12/02 08:45:23;;;;;;;41.00;21.87;;;;;;;-0.83;100.00;101555.97;5022536;28;20041;-71
2020/12/02 08:47:53;;;;;;;51.57;26.40;;;;;;;-0.79;100.00;101558.72;5027996;28;20038;-70
2020/12/02 08:50:25;;;;;;;51.30;24.83;;;;;;;-0.69;100.00;101554.75;5007723;28;20373;-71
2020/12/02 08:52:53;;;;;;;44.80;23.57;;;;;;;-0.59;100.00;101565.59;5010168;28;20132;-71
2020/12/02 08:55:20;;;;;;;41.00;23.53;;;;;;;-0.53;100.00;101553.66;5031792;28;20044;-71
2020/12/02 08:57:46;;;;;;;47.13;22.87;;;;;;;-0.45;100.00;101560.03;4991166;28;20100;-70
2020/12/02 09:00:16;;;;;;;41.23;21.30;;;;;;;-0.39;100.00;101549.88;5002458;28;20061;-70
2020/12/02 09:02:43;;;;;;;48.97;25.23;;;;;;;-0.33;100.00;101552.72;5006985;28;20034;-71
2020/12/02 09:05:09;;;;;;;48.47;24.57;;;;;;;-0.26;100.00;101552.09;5001785;28;20136;-71
2020/12/02 09:07:36;;;;;;;64.80;33.60;;;;;;;-0.23;100.00;101549.66;5010897;28;20037;-74
2020/12/02 09:10:03;;;;;;;62.00;31.47;;;;;;;-0.15;100.00;101552.53;5025983;28;20076;-72
2020/12/02 09:12:29;;;;;;;67.53;33.73;;;;;;;-0.14;100.00;101546.50;5010259;28;20033;-70
2020/12/02 09:14:55;;;;;;;62.73;35.37;;;;;;;-0.13;100.00;101549.16;5045373;23;20652;-69
2020/12/02 09:17:22;;;;;;;64.63;32.93;;;;;;;-0.07;100.00;101539.00;5020964;28;20045;-69
2020/12/02 09:19:50;;;;;;;61.37;32.13;;;;;;;0.01;100.00;101541.88;5009920;28;20048;-69
2020/12/02 09:22:17;;;;;;;65.93;32.90;;;;;;;0.09;100.00;101531.75;5009581;28;20053;-69
2020/12/02 09:24:44;;;;;;;73.40;37.77;;;;;;;0.16;100.00;101525.94;5027435;28;20037;-69
2020/12/02 09:27:11;;;;;;;65.80;34.87;;;;;;;0.16;100.00;101525.94;5009719;28;20065;-69
2020/12/02 09:29:37;;;;;;;73.73;36.33;;;;;;;0.11;100.00;101527.50;5010011;28;20656;-69
2020/12/02 09:32:04;;;;;;;64.07;33.83;;;;;;;0.15;100.00;101525.03;5009270;28;20073;-69
2020/12/02 09:34:30;;;;;;;78.00;37.27;;;;;;;0.17;100.00;101517.28;5010344;28;20615;-69
2020/12/02 09:36:56;;;;;;;75.80;37.23;;;;;;;0.18;100.00;101519.09;5010032;28;20091;-69
2020/12/02 09:39:22;;;;;;;74.60;37.33;;;;;;;0.21;100.00;101516.59;5009544;28;20099;-69
2020/12/02 09:42:10;;;;;;;72.00;34.53;;;;;;;0.24;100.00;101508.88;5009505;28;20034;-69
2020/12/02 09:44:57;;;;;;;78.17;37.40;;;;;;;0.24;100.00;101514.09;5026884;28;20041;-69
2020/12/02 09:47:23;;;;;;;75.70;37.63;;;;;;;0.30;100.00;101503.91;5009698;28;20042;-69
2020/12/02 09:49:49;;;;;;;87.90;40.40;;;;;;;0.17;100.00;101502.63;5009067;28;20037;-69
2020/12/02 09:52:27;;;;;;;80.03;40.07;;;;;;;0.21;100.00;101493.22;5009648;28;20048;-69
2020/12/02 09:54:54;;;;;;;78.43;39.13;;;;;;;0.26;100.00;101496.88;5010484;28;20037;-69
2020/12/02 09:57:25;;;;;;;83.77;41.47;;;;;;;0.30;100.00;101493.53;4990955;28;20449;-69
2020/12/02 09:59:53;;;;;;;81.63;40.10;;;;;;;0.32;100.00;101488.38;5014926;28;20040;-69
2020/12/02 10:02:50;;;;;;;76.33;40.83;;;;;;;0.33;100.00;101488.41;5028160;28;20077;-69
2020/12/02 10:05:27;;;;;;;79.40;39.10;;;;;;;0.40;100.00;101490.41;5027293;28;20029;-69
2020/12/02 10:08:15;;;;;;;82.30;38.90;;;;;;;0.45;100.00;101493.16;5031086;28;20125;-69
2020/12/02 10:10:50;;;;;;;84.37;41.00;;;;;;;0.54;100.00;101488.28;5030075;28;20061;-69
2020/12/02 10:13:32;;;;;;;80.60;39.33;;;;;;;0.52;100.00;101485.63;5013370;28;20348;-69
2020/12/02 10:16:04;;;;;;;78.07;37.10;;;;;;;0.57;100.00;101480.56;5014781;28;20132;-69
2020/12/02 10:18:46;;;;;;;84.77;38.50;;;;;;;0.60;100.00;101477.19;4999783;28;20087;-69
2020/12/02 10:21:42;;;;;;;76.10;40.50;;;;;;;0.62;100.00;101467.72;5012186;28;20120;-69
2020/12/02 10:24:23;;;;;;;93.00;40.50;;;;;;;0.54;100.00;101468.34;4996587;28;20049;-69
2020/12/02 10:27:14;;;;;;;78.77;37.87;;;;;;;0.53;100.00;101465.72;5012597;28;20042;-69
2020/12/02 10:29:40;;;;;;;79.90;38.10;;;;;;;0.61;100.00;101465.97;5022355;28;20433;-69
2020/12/02 10:32:25;;;;;;;79.27;39.03;;;;;;;0.73;100.00;101463.75;5029592;28;20045;-69
2020/12/02 10:34:51;;;;;;;78.57;38.92;;;;;;;0.73;100.00;101464.63;5030329;28;20168;-69
2020/12/02 10:37:31;;;;;;;76.70;38.20;;;;;;;0.83;100.00;101451.06;5012453;28;20044;-69
2020/12/02 10:39:58;;;;;;;73.37;35.87;;;;;;;0.93;100.00;101451.41;5012579;28;20483;-69
2020/12/02 10:42:58;;;;;;;76.77;38.47;;;;;;;0.97;100.00;101445.44;5016670;28;20037;-69
2020/12/02 10:45:25;;;;;;;73.93;38.00;;;;;;;0.90;100.00;101435.66;5004763;28;20041;-69
2020/12/02 10:48:01;;;;;;;83.23;40.93;;;;;;;0.95;100.00;101429.78;5012798;28;20080;-69
2020/12/02 10:50:31;;;;;;;84.40;41.20;;;;;;;0.91;100.00;101424.41;5029976;28;20049;-69
2020/12/02 10:53:00;;;;;;;77.23;37.87;;;;;;;0.92;100.00;101424.47;5013393;28;20060;-69
2020/12/02 10:55:30;;;;;;;77.27;36.93;;;;;;;0.95;100.00;101413.28;5024498;28;20052;-69
2020/12/02 10:58:18;;;;;;;74.33;37.80;;;;;;;1.03;100.00;101407.47;5012917;28;20072;-69
2020/12/02 11:00:54;;;;;;;77.60;39.10;;;;;;;1.11;100.00;101410.31;4995990;28;20037;-69
2020/12/02 11:03:33;;;;;;;83.57;40.23;;;;;;;1.15;100.00;101404.34;4996386;28;20042;-69
2020/12/02 11:06:11;;;;;;;75.17;38.53;;;;;;;1.22;100.00;101395.00;5026312;28;20053;-69
2020/12/02 11:08:56;;;;;;;72.93;38.97;;;;;;;1.27;100.00;101385.63;5030065;28;20037;-69
2020/12/02 11:11:40;;;;;;;72.90;37.03;;;;;;;1.27;100.00;101385.63;5016057;28;20033;-69
2020/12/02 11:14:20;;;;;;;76.25;37.53;;;;;;;1.32;100.00;101382.28;5012305;28;20037;-69
2020/12/02 11:17:12;;;;;;;77.77;38.80;;;;;;;1.31;99.59;101383.13;5001318;28;20120;-69
2020/12/02 11:19:52;;;;;;;79.50;41.80;;;;;;;1.23;98.69;101382.03;5011946;28;20509;-69
2020/12/02 11:22:36;;;;;;;78.50;41.97;;;;;;;1.39;98.20;101375.56;5011827;28;20041;-69
2020/12/02 11:25:12;;;;;;;77.77;39.97;;;;;;;1.29;97.28;101376.13;5029673;28;20033;-69
2020/12/02 11:27:39;;;;;;;73.73;39.07;;;;;;;1.33;97.28;101375.38;5012089;28;20465;-68